aviador You're here:

RKNY Decoded Metar

YANGKU in KOREA
Report Time2017-08-24 08:26:00
UTC Time2017-08-24 08:51:07
Flight Rules mvfr MVFR
Wind180° at 07 kt
W.Decomp.*RWY 15: 5.6 kt HW 4.2 kt RCW
W.Rank180° ranks 34
Current wind is above 180° avg. (3.4)
Visibility6000 m
Phenomena:N/A
Clouds:Few 005 Hf
Scattered 025 Hf
Broken 080 Hf
Ceiling8,000 ft
Temp25°C (ISA +10)
Dew Point25°C (100% RH)
QNH1000 hPa
Density Alt2,313 ft
Elevation243 ft
Report Wrong Elevation
Raw Report
RKNY 240826Z 18007KT 6000 FEW005 SCT025 BKN080 25/25 Q1000 NOSIG=

Extra information for RKNY:More info

Metar Taf Metar & Taf Last 4 Metars F.Rules Stats Wind Profile Meteogram Temp Stats Airport Information Weather charts Add Link Nearby VenuesMetar ALERT Operation Metar Decoded Social comments